EGDM

MoD Boscombe Down Airport

Amesbury, United Kingdom
METAR EGDM 181350Z AUTO 24009KT 9999 OVC029/// 20/13 Q1021
Observed Flight Rules
Aug-18 @ 13:50 UTC (an hour ago) Marginal Visual Flight Rules
Wind Visibility Clouds
240° at 9 knots 10,000+ meters
  • Overcast at 2,900' AGL
Temperatures Readings
Current 20°C / 68°F
Dewpoint 13°C / 55°F
Humidity 64%
Altimeter 30.15" Hg
Pressure 1021 hPa
Elevation 124
METAR EGDM 181350Z AUTO 24009KT 9999 OVC029/// 20/13 Q1021
Observed Flight Rules
Aug-18 @ 13:50 UTC
(an hour ago)
MVFR
Wind Visibility
240° at 9 knots 10,000+ meters
Clouds
  • Overcast at 2,900' AGL
Temperature Dewpoint
20°C / 68°F 13°C / 55°F
Humidity Altimeter Pressure
64% 30.15" Hg 1021 hPa